サンクトペテルブルク の空港の天気 - METARとTAF

プルコヴォ空港(サンクトペテルブルグ) ( ULLI / LED ) - ロシア サンクトペテルブルク
飛行場実況気象(Metar)
観測時間08/14 07:00 MSK (08/14 04:00 UTC)
風向・風速静穏 0m/s
視程10km以上
天気現象
なし
気温11℃
湿度71%
気圧1018hPa
METARULLI 140400Z 00000MPS CAVOK 11/06 Q1018 R28L/090060 NOSIG
過去の天気等 Google飛行場航空写真 Wunderground天気予報

過去48時間のMETAR

飛行場予報(TAF)
発表時間: 8/14 04:53 MSK (8/14 01:53 UTC)
予報対象時間: 14日6時 MSK ~ 15日6時 MSK
風向・風速不定 1m/s
視程10km以上
なし
14日8時 MSK ~ 14日10時 MSK に徐々に
風向・風速南西 3m/s 瞬間風速 8m/s
全天の4割程度の雲 雲底高度 910m
14日15時 MSK ~ 14日19時 MSK に一時的に
風向・風速西 3m/s
14日21時 MSK ~ 14日23時 MSK に徐々に
風向・風速南南東 3m/s
全天の8割程度の雲 雲底高度 610m
TAF ULLI 140153Z 1403/1503 VRB01MPS CAVOK
BECMG 1405/1407 22003G08MPS SCT030
TEMPO 1412/1416 28003MPS
BECMG 1418/1420 16003MPS BKN020